Time;durP1;ratioP1;P1;durP2;ratioP2;P2;SDS_P1;SDS_P2;PMS_P1;PMS_P2;Temp;Humidity;BMP_temperature;BMP_pressure;BME280_temperature;BME280_humidity;BME280_pressure;Samples;Min_cycle;Max_cycle;Signal;HPM_P1;HPM_P2
2022/03/21 00:01:03;;;;;;;2.05;1.20;;;14.10;99.90;;;;;;5018040;28;20038;-75
2022/03/21 00:03:29;;;;;;;0.68;0.13;;;14.10;99.90;;;;;;5018940;28;20030;-76
2022/03/21 00:05:59;;;;;;;0.20;0.20;;;14.00;99.90;;;;;;5018264;28;20041;-76
2022/03/21 00:08:26;;;;;;;0.10;0.10;;;14.00;99.90;;;;;;5018570;28;20081;-76
2022/03/21 00:10:54;;;;;;;0.10;0.10;;;13.80;99.90;;;;;;5017897;28;20068;-76
2022/03/21 00:13:21;;;;;;;0.63;0.63;;;13.80;99.90;;;;;;5001078;28;20376;-76
2022/03/21 00:15:47;;;;;;;0.32;0.32;;;13.70;99.90;;;;;;5018065;28;20136;-76
2022/03/21 00:18:14;;;;;;;0.20;0.20;;;13.80;99.90;;;;;;5017692;28;20125;-76
2022/03/21 00:20:50;;;;;;;0.10;0.10;;;13.80;99.90;;;;;;5017855;28;20042;-76
2022/03/21 00:23:17;;;;;;;0.52;0.52;;;13.90;99.90;;;;;;5018562;28;20052;-76
2022/03/21 00:25:43;;;;;;;0.35;0.25;;;13.90;99.90;;;;;;5018177;28;20049;-76
2022/03/21 00:28:10;;;;;;;0.68;0.50;;;14.00;99.90;;;;;;5018132;28;20046;-76
2022/03/21 00:30:37;;;;;;;0.32;0.32;;;14.00;99.90;;;;;;5018123;28;20046;-76
2022/03/21 00:33:04;;;;;;;0.28;0.20;;;13.80;99.90;;;;;;5017793;28;20045;-76
2022/03/21 00:35:30;;;;;;;0.75;0.63;;;13.80;99.90;;;;;;5017773;28;20034;-75
2022/03/21 00:37:57;;;;;;;0.52;0.50;;;14.00;99.90;;;;;;5017987;28;20042;-76
2022/03/21 00:40:24;;;;;;;0.10;0.10;;;13.90;99.90;;;;;;5017534;28;20034;-76
2022/03/21 00:42:51;;;;;;;0.22;0.22;;;13.80;99.90;;;;;;5018187;28;20042;-76
2022/03/21 00:45:19;;;;;;;0.35;0.35;;;13.90;99.90;;;;;;5017845;28;20077;-76
2022/03/21 00:47:47;;;;;;;0.98;0.32;;;13.90;99.90;;;;;;5017498;28;20444;-76
2022/03/21 00:50:14;;;;;;;0.13;0.13;;;13.60;99.90;;;;;;5017579;28;20107;-76
2022/03/21 00:52:51;;;;;;;0.20;0.20;;;13.50;99.90;;;;;;5017427;28;20176;-76
2022/03/21 00:55:19;;;;;;;0.10;0.10;;;13.40;99.90;;;;;;5017961;28;20045;-76
2022/03/21 00:57:45;;;;;;;0.30;0.30;;;13.30;99.90;;;;;;5017556;28;20041;-75
2022/03/21 01:00:16;;;;;;;0.25;0.25;;;13.30;99.90;;;;;;5017567;28;20065;-75
2022/03/21 01:02:42;;;;;;;0.10;0.10;;;13.40;99.90;;;;;;5017471;28;20132;-75
2022/03/21 01:05:09;;;;;;;0.43;0.43;;;13.30;99.90;;;;;;5017119;28;20136;-75
2022/03/21 01:07:36;;;;;;;0.10;0.10;;;13.30;99.90;;;;;;5016980;28;20046;-75
2022/03/21 01:10:04;;;;;;;0.52;0.47;;;13.20;99.90;;;;;;5017345;28;20061;-75
2022/03/21 01:12:30;;;;;;;0.00;0.00;;;12.80;99.90;;;;;;5017108;28;20042;-76
2022/03/21 01:14:56;;;;;;;0.10;0.10;;;12.50;99.90;;;;;;5016996;28;20033;-76
2022/03/21 01:17:22;;;;;;;0.10;0.10;;;12.20;99.90;;;;;;5017284;28;20056;-76
2022/03/21 01:19:48;;;;;;;0.10;0.10;;;12.10;99.90;;;;;;5016898;28;20037;-76
2022/03/21 01:22:15;;;;;;;0.10;0.10;;;12.10;99.90;;;;;;5017093;28;20120;-76
2022/03/21 01:24:41;;;;;;;0.00;0.00;;;12.20;99.90;;;;;;5016807;28;20038;-76
2022/03/21 01:27:08;;;;;;;0.25;0.25;;;12.20;99.90;;;;;;5016806;28;20056;-76
2022/03/21 01:29:35;;;;;;;0.10;0.10;;;12.20;99.90;;;;;;5016454;28;20034;-77
2022/03/21 01:32:01;;;;;;;0.10;0.10;;;12.10;99.90;;;;;;5016677;28;20038;-77
2022/03/21 01:34:27;;;;;;;0.10;0.10;;;12.10;99.90;;;;;;5016296;28;20061;-76
2022/03/21 01:36:53;;;;;;;0.10;0.10;;;11.70;99.90;;;;;;5016506;28;20045;-76
2022/03/21 01:39:19;;;;;;;0.00;0.00;;;11.60;99.90;;;;;;5016491;28;20125;-76
2022/03/21 01:41:46;;;;;;;0.10;0.10;;;11.20;99.90;;;;;;5016438;28;20042;-76
2022/03/21 01:44:12;;;;;;;0.03;0.03;;;11.20;99.90;;;;;;5016427;28;20038;-77
2022/03/21 01:46:39;;;;;;;0.00;0.00;;;11.10;99.90;;;;;;5016109;28;20041;-77
2022/03/21 01:49:08;;;;;;;0.10;0.10;;;11.20;99.90;;;;;;5016104;28;20038;-76
2022/03/21 01:51:36;;;;;;;0.10;0.10;;;11.00;99.90;;;;;;5016180;28;20045;-77
2022/03/21 01:56:48;;;;;;;0.10;0.10;;;10.70;99.90;;;;;;5015947;28;20037;-77
2022/03/21 01:59:15;;;;;;;0.10;0.10;;;10.80;99.90;;;;;;5016458;28;20041;-77
2022/03/21 02:01:42;;;;;;;0.10;0.10;;;10.70;99.90;;;;;;5016018;28;20069;-76
2022/03/21 02:04:09;;;;;;;0.08;0.08;;;10.60;99.90;;;;;;5016097;28;20042;-76
2022/03/21 02:06:35;;;;;;;0.10;0.10;;;10.60;99.90;;;;;;5015847;28;20041;-77
2022/03/21 02:09:04;;;;;;;0.00;0.00;;;10.70;99.90;;;;;;5015914;28;20056;-78
2022/03/21 02:11:30;;;;;;;2.75;0.28;;;10.80;99.90;;;;;;5016102;28;20046;-77
2022/03/21 02:13:58;;;;;;;0.10;0.10;;;10.90;99.90;;;;;;5016073;28;20111;-77
2022/03/21 02:16:29;;;;;;;0.10;0.10;;;10.90;99.90;;;;;;5015574;28;20042;-77
2022/03/21 02:18:57;;;;;;;;;;;11.00;99.90;;;;;;5016526;28;20128;-77
2022/03/21 02:21:48;;;;;;;1.40;0.20;;;11.30;99.90;;;;;;5015865;28;19918;-77
2022/03/21 02:24:19;;;;;;;0.10;0.10;;;11.30;99.90;;;;;;5016648;28;20084;-77
2022/03/21 02:26:46;;;;;;;0.10;0.10;;;11.30;99.90;;;;;;5015640;28;20033;-77
2022/03/21 02:29:14;;;;;;;0.10;0.10;;;11.20;99.90;;;;;;5015896;28;20530;-77
2022/03/21 02:31:41;;;;;;;0.10;0.10;;;11.30;99.90;;;;;;5015754;28;20046;-77
2022/03/21 02:34:08;;;;;;;0.10;0.10;;;11.50;99.90;;;;;;5016025;28;20042;-77
2022/03/21 02:36:35;;;;;;;0.20;0.20;;;11.50;99.90;;;;;;5015560;28;20045;-77
2022/03/21 02:39:01;;;;;;;1.55;1.05;;;11.60;99.90;;;;;;5015763;28;20036;-77
2022/03/21 02:41:27;;;;;;;1.15;1.05;;;11.60;99.90;;;;;;5016052;28;20129;-77
2022/03/21 02:43:58;;;;;;;0.10;0.10;;;11.70;99.90;;;;;;5015422;28;20069;-77
2022/03/21 02:46:25;;;;;;;0.10;0.10;;;11.70;99.90;;;;;;5015806;28;20125;-77
2022/03/21 02:48:54;;;;;;;1.38;1.27;;;11.80;99.90;;;;;;5015832;28;20565;-77
2022/03/21 02:51:20;;;;;;;0.10;0.10;;;11.90;99.90;;;;;;5015297;28;20041;-77
2022/03/21 02:53:50;;;;;;;0.10;0.10;;;11.80;99.90;;;;;;5015220;28;20071;-77
2022/03/21 02:56:16;;;;;;;1.02;0.95;;;11.80;99.90;;;;;;5015194;28;20072;-76
2022/03/21 02:58:42;;;;;;;2.38;0.30;;;11.80;99.90;;;;;;5015354;28;20103;-76
2022/03/21 03:01:10;;;;;;;0.30;0.30;;;11.80;99.90;;;;;;5015454;28;20451;-76
2022/03/21 03:03:37;;;;;;;0.20;0.20;;;11.80;99.90;;;;;;5015374;28;20072;-76
2022/03/21 03:06:03;;;;;;;0.30;0.30;;;11.80;99.90;;;;;;5015345;28;20538;-76
2022/03/21 03:08:30;;;;;;;0.65;0.20;;;11.80;99.90;;;;;;5014990;28;20072;-76
2022/03/21 03:10:56;;;;;;;0.30;0.30;;;11.80;99.90;;;;;;5015083;28;20045;-77
2022/03/21 03:13:22;;;;;;;0.20;0.20;;;11.80;99.90;;;;;;5015481;28;20063;-76
2022/03/21 03:15:48;;;;;;;0.47;0.47;;;11.80;99.90;;;;;;5015144;28;20061;-76
2022/03/21 03:18:14;;;;;;;0.63;0.63;;;11.80;99.90;;;;;;5015115;28;20042;-76
2022/03/21 03:20:51;;;;;;;0.10;0.10;;;11.80;99.90;;;;;;5014817;28;20045;-76
2022/03/21 03:23:22;;;;;;;0.32;0.32;;;11.80;99.90;;;;;;5015957;28;20121;-76
2022/03/21 03:25:59;;;;;;;0.28;0.28;;;11.90;99.90;;;;;;5015086;28;20070;-76
2022/03/21 03:28:25;;;;;;;0.10;0.10;;;11.80;99.90;;;;;;5015547;28;20042;-76
2022/03/21 03:30:52;;;;;;;0.20;0.20;;;11.90;99.90;;;;;;5015025;28;20045;-76
2022/03/21 03:33:18;;;;;;;0.10;0.10;;;11.90;99.90;;;;;;5014734;28;20037;-76
2022/03/21 03:35:43;;;;;;;0.10;0.10;;;11.80;99.90;;;;;;5014532;28;20128;-75
2022/03/21 03:38:09;;;;;;;0.25;0.25;;;11.90;99.90;;;;;;5014609;28;20133;-75
2022/03/21 03:40:35;;;;;;;2.17;0.70;;;11.90;99.90;;;;;;5015468;28;20045;-75
2022/03/21 03:43:01;;;;;;;0.88;0.75;;;11.90;99.90;;;;;;5015230;28;20044;-75
2022/03/21 03:45:27;;;;;;;0.77;0.20;;;12.00;99.90;;;;;;5015051;28;20053;-75
2022/03/21 03:47:53;;;;;;;2.10;1.27;;;12.00;99.90;;;;;;5014507;28;20042;-75
2022/03/21 03:50:20;;;;;;;0.93;0.93;;;12.00;99.90;;;;;;5014975;28;20034;-75
2022/03/21 03:52:47;;;;;;;0.30;0.30;;;12.00;99.90;;;;;;5014925;28;20121;-75
2022/03/21 03:55:14;;;;;;;0.30;0.30;;;12.00;99.90;;;;;;5014473;28;20034;-75
2022/03/21 03:57:41;;;;;;;0.25;0.20;;;12.00;99.90;;;;;;5014725;28;20056;-75
2022/03/21 04:00:08;;;;;;;0.30;0.30;;;12.00;99.90;;;;;;5014766;28;20046;-75
2022/03/21 04:03:44;;;;;;;0.57;0.55;;;12.10;99.90;;;;;;5014864;28;20125;-76
2022/03/21 04:05:21;;;;;;;0.22;0.22;;;12.10;99.90;;;;;;5013955;28;20045;-76
2022/03/21 04:07:52;;;;;;;1.13;0.38;;;12.10;99.90;;;;;;5014702;28;20048;-76
2022/03/21 04:10:20;;;;;;;0.38;0.38;;;12.20;99.90;;;;;;5014085;28;20042;-76
2022/03/21 04:12:48;;;;;;;0.30;0.30;;;12.20;99.90;;;;;;5014455;28;20492;-76
2022/03/21 04:15:14;;;;;;;0.22;0.22;;;12.10;99.90;;;;;;5014894;28;20050;-76
2022/03/21 04:17:40;;;;;;;0.15;0.15;;;12.10;99.90;;;;;;5014151;28;20099;-76
2022/03/21 04:20:07;;;;;;;0.15;0.15;;;12.10;99.90;;;;;;5014612;28;20050;-76
2022/03/21 04:22:37;;;;;;;0.63;0.63;;;12.10;99.90;;;;;;5014819;28;20108;-76
2022/03/21 04:25:10;;;;;;;0.50;0.50;;;12.10;99.90;;;;;;5014860;28;20038;-76
2022/03/21 04:27:37;;;;;;;0.82;0.70;;;12.10;99.90;;;;;;5014293;28;20042;-76
2022/03/21 04:30:04;;;;;;;2.42;1.38;;;12.10;99.90;;;;;;5014365;28;20469;-76
2022/03/21 04:32:30;;;;;;;0.25;0.25;;;12.20;99.90;;;;;;5014137;28;20523;-76
2022/03/21 04:34:56;;;;;;;0.40;0.40;;;12.10;99.90;;;;;;5014378;28;20030;-76
2022/03/21 04:37:22;;;;;;;0.35;0.35;;;12.10;99.90;;;;;;5014233;28;20049;-76
2022/03/21 04:39:48;;;;;;;0.20;0.20;;;12.10;99.90;;;;;;5014928;28;20042;-76
2022/03/21 04:42:14;;;;;;;1.08;0.75;;;12.00;99.90;;;;;;5017744;28;20507;-76
2022/03/21 04:44:40;;;;;;;1.65;0.60;;;12.10;99.90;;;;;;5017844;28;20034;-76
2022/03/21 04:47:07;;;;;;;0.25;0.22;;;12.10;99.90;;;;;;5017515;28;20547;-76
2022/03/21 04:49:33;;;;;;;0.20;0.20;;;12.10;99.90;;;;;;5017731;28;20030;-76
2022/03/21 04:51:59;;;;;;;0.40;0.40;;;12.10;99.90;;;;;;5017685;28;20096;-76
2022/03/21 04:54:28;;;;;;;0.38;0.38;;;12.10;99.90;;;;;;5017638;28;20496;-76
2022/03/21 04:56:54;;;;;;;0.13;0.13;;;12.10;99.90;;;;;;5017470;28;20038;-77
2022/03/21 04:59:20;;;;;;;0.20;0.20;;;12.10;99.90;;;;;;5017255;28;20041;-77
2022/03/21 05:01:47;;;;;;;0.35;0.35;;;12.10;99.90;;;;;;5017357;28;20046;-77
2022/03/21 05:04:15;;;;;;;0.43;0.43;;;12.10;99.90;;;;;;5017473;28;20042;-76
2022/03/21 05:06:48;;;;;;;3.75;0.55;;;12.10;99.90;;;;;;5017367;28;20081;-76
2022/03/21 05:09:14;;;;;;;0.10;0.10;;;12.10;99.90;;;;;;5016819;28;20037;-76
2022/03/21 05:11:40;;;;;;;0.10;0.10;;;12.20;99.90;;;;;;5000204;28;20484;-76
2022/03/21 05:14:06;;;;;;;0.10;0.10;;;12.20;99.90;;;;;;5017270;28;20040;-76
2022/03/21 05:16:32;;;;;;;0.40;0.40;;;12.20;99.90;;;;;;5017265;28;20439;-76
2022/03/21 05:18:58;;;;;;;0.52;0.52;;;12.20;99.90;;;;;;5017051;28;20050;-76
2022/03/21 05:21:24;;;;;;;0.20;0.20;;;12.20;99.90;;;;;;5016373;28;20064;-76
2022/03/21 05:32:03;;;;;;;0.10;0.10;;;12.10;99.90;;;;;;5016290;28;20041;-76
2022/03/21 05:37:13;;;;;;;5.15;1.45;;;12.20;99.90;;;;;;5001092;28;20049;-76
2022/03/21 05:40:31;;;;;;;0.35;0.35;;;12.10;99.90;;;;;;5017006;28;20121;-76
2022/03/21 05:42:25;;;;;;;0.10;0.10;;;12.20;99.90;;;;;;5016034;28;20516;-75
2022/03/21 05:45:00;;;;;;;0.13;0.13;;;12.30;99.90;;;;;;5016883;28;20034;-75
2022/03/21 05:47:26;;;;;;;0.10;0.10;;;12.30;99.90;;;;;;5015900;28;20532;-75
2022/03/21 05:49:52;;;;;;;0.20;0.20;;;12.30;99.90;;;;;;5016004;28;20033;-76
2022/03/21 05:52:17;;;;;;;0.10;0.10;;;12.20;99.90;;;;;;5015002;28;20042;-76
2022/03/21 05:54:46;;;;;;;0.10;0.10;;;12.20;99.90;;;;;;5016050;28;20040;-75
2022/03/21 05:57:12;;;;;;;0.10;0.10;;;12.20;99.90;;;;;;5015906;28;20500;-75
2022/03/21 06:02:22;;;;;;;0.10;0.10;;;12.30;99.90;;;;;;5015909;28;20084;-76
2022/03/21 06:04:49;;;;;;;0.20;0.20;;;12.30;99.90;;;;;;5015745;28;20062;-76
2022/03/21 06:07:16;;;;;;;0.10;0.10;;;12.30;99.90;;;;;;5015946;28;20096;-76
2022/03/21 06:09:43;;;;;;;0.28;0.28;;;12.30;99.90;;;;;;5015905;28;20065;-76
2022/03/21 06:12:09;;;;;;;0.75;0.38;;;12.30;99.90;;;;;;5014688;28;20144;-75
2022/03/21 06:14:35;;;;;;;0.85;0.30;;;12.30;99.90;;;;;;5016123;28;20096;-75
2022/03/21 06:17:01;;;;;;;0.95;0.55;;;12.40;99.90;;;;;;5016032;28;20049;-75
2022/03/21 06:19:26;;;;;;;0.25;0.25;;;12.40;99.90;;;;;;5015763;28;20042;-75
2022/03/21 06:21:52;;;;;;;0.38;0.30;;;12.20;99.90;;;;;;5011877;28;20054;-75
2022/03/21 06:24:18;;;;;;;0.10;0.10;;;12.10;99.90;;;;;;5015778;28;20037;-75
2022/03/21 06:26:44;;;;;;;0.55;0.55;;;12.00;99.90;;;;;;5015969;28;20045;-75
2022/03/21 06:29:10;;;;;;;0.10;0.10;;;12.10;99.90;;;;;;5015952;28;20042;-74
2022/03/21 06:31:37;;;;;;;0.10;0.10;;;12.10;99.90;;;;;;5015675;28;20048;-73
2022/03/21 06:34:03;;;;;;;0.10;0.10;;;12.10;99.90;;;;;;5015889;28;20087;-76
2022/03/21 06:36:30;;;;;;;0.20;0.20;;;12.10;99.90;;;;;;5015363;28;20053;-75
2022/03/21 06:38:56;;;;;;;0.10;0.10;;;12.10;99.90;;;;;;5015274;28;20073;-75
2022/03/21 06:41:21;;;;;;;0.10;0.10;;;12.10;99.90;;;;;;5015676;28;20046;-76
2022/03/21 06:43:47;;;;;;;0.10;0.10;;;12.00;99.90;;;;;;5015963;28;20488;-76
2022/03/21 06:46:13;;;;;;;0.10;0.10;;;11.90;99.90;;;;;;5015748;28;20038;-76
2022/03/21 06:48:39;;;;;;;5.93;1.58;;;11.80;99.90;;;;;;5015686;28;20121;-76
2022/03/21 06:51:05;;;;;;;0.40;0.40;;;11.80;99.90;;;;;;5015105;28;20041;-76
2022/03/21 06:53:30;;;;;;;0.10;0.10;;;11.80;99.90;;;;;;5015239;28;20482;-78
2022/03/21 06:55:56;;;;;;;0.20;0.20;;;11.70;99.90;;;;;;5015093;28;20091;-77
2022/03/21 06:58:22;;;;;;;0.47;0.47;;;11.60;99.90;;;;;;5015090;28;20523;-77
2022/03/21 07:00:48;;;;;;;16.15;0.70;;;11.60;99.90;;;;;;5015316;28;20041;-77
2022/03/21 07:03:15;;;;;;;5.68;0.55;;;11.60;99.90;;;;;;5014687;28;20066;-78
2022/03/21 07:05:42;;;;;;;0.10;0.10;;;11.40;99.90;;;;;;5015023;28;20046;-78
2022/03/21 07:08:07;;;;;;;0.22;0.22;;;11.40;99.90;;;;;;5015351;28;20042;-78
2022/03/21 07:10:33;;;;;;;0.08;0.08;;;11.30;99.90;;;;;;5015549;28;20504;-78
2022/03/21 07:13:01;;;;;;;0.57;0.32;;;11.20;99.90;;;;;;5014943;28;20072;-78
2022/03/21 07:15:28;;;;;;;0.20;0.20;;;11.10;99.90;;;;;;5015218;28;20049;-79
2022/03/21 07:17:55;;;;;;;0.38;0.30;;;10.90;99.90;;;;;;5015398;28;20054;-79
2022/03/21 07:20:24;;;;;;;0.80;0.80;;;10.90;99.90;;;;;;5014713;28;20440;-79
2022/03/21 07:22:50;;;;;;;0.80;0.50;;;10.80;99.90;;;;;;5014631;28;20072;-79
2022/03/21 07:25:16;;;;;;;1.52;0.32;;;10.80;99.90;;;;;;5014841;28;20099;-79
2022/03/21 07:27:46;;;;;;;0.10;0.10;;;10.80;99.90;;;;;;5014843;28;20049;-79
2022/03/21 07:30:13;;;;;;;0.30;0.30;;;10.80;99.90;;;;;;4997689;28;20041;-78
2022/03/21 07:32:40;;;;;;;0.50;0.50;;;10.70;99.90;;;;;;5014851;28;20121;-79
2022/03/21 07:35:06;;;;;;;0.10;0.10;;;10.60;99.90;;;;;;5014733;28;20034;-79
2022/03/21 07:37:43;;;;;;;0.43;0.43;;;10.60;99.90;;;;;;5011813;28;20085;-79
2022/03/21 07:40:11;;;;;;;0.20;0.20;;;10.60;99.90;;;;;;5008625;28;20046;-78
2022/03/21 07:42:38;;;;;;;1.70;0.38;;;10.60;99.90;;;;;;5000689;28;20038;-78
2022/03/21 07:47:55;;;;;;;1.05;0.73;;;10.60;99.90;;;;;;5001645;28;20049;-79
2022/03/21 07:50:25;;;;;;;0.17;0.17;;;10.60;99.90;;;;;;5013612;28;20042;-79
2022/03/21 07:52:52;;;;;;;1.25;0.47;;;10.50;99.90;;;;;;5013929;28;20556;-79
2022/03/21 07:55:18;;;;;;;0.40;0.40;;;10.50;99.90;;;;;;5014194;28;20060;-78
2022/03/21 07:57:44;;;;;;;0.40;0.40;;;10.50;99.90;;;;;;5014175;28;20045;-76
2022/03/21 08:00:11;;;;;;;0.65;0.65;;;10.60;99.90;;;;;;5013756;28;20421;-78
2022/03/21 08:02:37;;;;;;;1.55;0.68;;;10.50;99.90;;;;;;5013823;28;20042;-73
2022/03/21 08:05:04;;;;;;;0.43;0.43;;;10.50;99.90;;;;;;5013499;28;20041;-73
2022/03/21 08:07:32;;;;;;;0.40;0.40;;;10.50;99.90;;;;;;5013948;28;20038;-73
2022/03/21 08:09:58;;;;;;;0.90;0.90;;;10.60;99.90;;;;;;5020964;28;20061;-73
2022/03/21 08:12:24;;;;;;;0.30;0.30;;;10.70;99.90;;;;;;5012376;28;20061;-73
2022/03/21 08:14:51;;;;;;;0.73;0.73;;;10.70;99.90;;;;;;5010910;28;20057;-74
2022/03/21 08:17:18;;;;;;;0.52;0.52;;;10.70;99.90;;;;;;4992260;28;20050;-73
2022/03/21 08:19:45;;;;;;;0.30;0.30;;;10.70;99.90;;;;;;5013322;28;20077;-73
2022/03/21 08:22:11;;;;;;;0.88;0.88;;;10.80;99.90;;;;;;5004333;28;20130;-73
2022/03/21 08:24:37;;;;;;;1.08;0.90;;;10.70;99.90;;;;;;5012429;28;20125;-73
2022/03/21 08:27:05;;;;;;;0.60;0.60;;;10.60;99.90;;;;;;5014912;28;20129;-73
2022/03/21 08:29:31;;;;;;;1.30;1.20;;;10.70;99.90;;;;;;5014498;28;20037;-74
2022/03/21 08:31:57;;;;;;;0.70;0.70;;;10.70;99.90;;;;;;5004566;28;20049;-76
2022/03/21 08:34:23;;;;;;;0.95;0.95;;;10.80;99.90;;;;;;5003578;28;20046;-74
2022/03/21 08:36:50;;;;;;;2.17;0.63;;;10.70;99.90;;;;;;5015915;28;20064;-76
2022/03/21 08:39:16;;;;;;;1.00;0.70;;;10.80;99.90;;;;;;5009811;28;20622;-75
2022/03/21 08:41:42;;;;;;;1.10;1.10;;;10.80;99.90;;;;;;5011610;28;20105;-74
2022/03/21 08:44:11;;;;;;;0.65;0.45;;;10.80;99.90;;;;;;5004111;28;20041;-76
2022/03/21 08:46:37;;;;;;;0.13;0.13;;;10.80;99.90;;;;;;5007001;28;20469;-76
2022/03/21 08:51:47;;;;;;;1.70;1.00;;;10.80;99.90;;;;;;5005837;28;20036;-77
2022/03/21 08:54:13;;;;;;;2.40;1.45;;;10.80;99.90;;;;;;5014989;28;20035;-76
2022/03/21 08:56:40;;;;;;;0.40;0.40;;;10.90;99.90;;;;;;5007670;28;20037;-76
2022/03/21 08:59:06;;;;;;;0.52;0.52;;;10.80;99.90;;;;;;4997450;28;20113;-76
2022/03/21 09:01:32;;;;;;;1.80;0.65;;;10.90;99.90;;;;;;4997694;28;20035;-76
2022/03/21 09:04:01;;;;;;;0.50;0.50;;;10.90;99.90;;;;;;5001580;28;20091;-76
2022/03/21 09:06:28;;;;;;;1.45;1.15;;;10.90;99.90;;;;;;5015672;28;20038;-76
2022/03/21 09:08:55;;;;;;;3.58;1.50;;;10.80;99.90;;;;;;5012424;28;20087;-76
2022/03/21 09:11:21;;;;;;;0.30;0.30;;;10.90;99.90;;;;;;5006159;28;20121;-76
2022/03/21 09:13:48;;;;;;;1.33;1.17;;;10.90;99.90;;;;;;5000146;28;20123;-76
2022/03/21 09:16:15;;;;;;;0.38;0.38;;;10.90;99.90;;;;;;5015228;28;20064;-77
2022/03/21 09:18:42;;;;;;;5.57;1.10;;;11.00;99.90;;;;;;5015725;28;20050;-77
2022/03/21 09:21:08;;;;;;;0.57;0.57;;;11.10;99.90;;;;;;5019738;28;20057;-77
2022/03/21 09:23:34;;;;;;;6.45;2.65;;;10.90;99.90;;;;;;5016047;28;20041;-77
2022/03/21 09:26:01;;;;;;;0.50;0.50;;;10.90;99.90;;;;;;5017616;28;20511;-77
2022/03/21 09:28:28;;;;;;;2.25;1.55;;;11.00;99.90;;;;;;5016849;28;20124;-77
2022/03/21 09:30:55;;;;;;;0.35;0.35;;;11.10;99.90;;;;;;5021113;28;20062;-76
2022/03/21 09:33:22;;;;;;;1.02;1.02;;;11.00;99.90;;;;;;5018172;28;20042;-76
2022/03/21 09:35:48;;;;;;;1.35;1.25;;;11.00;99.90;;;;;;5008851;28;21365;-76
2022/03/21 09:38:15;;;;;;;2.42;2.10;;;11.10;99.90;;;;;;5017444;28;20042;-76
2022/03/21 09:40:42;;;;;;;0.77;0.77;;;11.10;99.90;;;;;;5016521;28;20477;-76
2022/03/21 09:43:11;;;;;;;1.15;1.08;;;11.10;99.90;;;;;;5018753;28;20033;-76
2022/03/21 09:45:38;;;;;;;1.38;1.27;;;11.20;99.90;;;;;;5034863;28;20162;-76
2022/03/21 09:48:08;;;;;;;0.60;0.60;;;11.20;99.90;;;;;;5032874;28;20116;-76
2022/03/21 09:50:36;;;;;;;0.77;0.77;;;11.20;99.90;;;;;;5016450;28;20053;-76
2022/03/21 09:53:07;;;;;;;1.05;1.05;;;11.30;99.90;;;;;;5024556;28;20112;-75
2022/03/21 09:55:33;;;;;;;2.33;1.45;;;11.40;99.90;;;;;;5035579;28;20052;-75
2022/03/21 09:57:59;;;;;;;2.42;1.20;;;11.40;99.90;;;;;;5032005;28;20507;-75
2022/03/21 10:00:25;;;;;;;1.92;1.83;;;11.50;99.90;;;;;;5015646;28;20037;-75
2022/03/21 10:02:52;;;;;;;2.35;2.17;;;11.60;99.90;;;;;;5016942;28;20065;-75
2022/03/21 10:05:33;;;;;;;1.70;1.00;;;11.60;99.90;;;;;;5012131;28;20041;-75
2022/03/21 10:08:09;;;;;;;;;;;11.60;99.90;;;;;;5016383;28;20125;-75
2022/03/21 10:10:35;;;;;;;1.20;1.15;;;11.50;99.90;;;;;;5017537;28;19955;-75
2022/03/21 10:13:02;;;;;;;2.53;1.58;;;11.50;99.90;;;;;;5017446;28;20069;-75
2022/03/21 10:15:28;;;;;;;2.95;2.75;;;11.40;99.90;;;;;;5015574;28;20388;-75
2022/03/21 10:18:24;;;;;;;3.13;2.03;;;11.40;99.90;;;;;;5030912;28;20080;-75
2022/03/21 10:20:49;;;;;;;1.52;1.42;;;11.20;99.90;;;;;;4982906;28;20497;-75
2022/03/21 10:23:22;;;;;;;1.60;1.38;;;11.20;99.90;;;;;;5008330;28;20067;-75
2022/03/21 10:25:49;;;;;;;1.38;1.27;;;11.30;99.90;;;;;;5020249;28;20037;-75
2022/03/21 10:28:35;;;;;;;1.48;1.42;;;11.50;99.90;;;;;;5015590;28;20038;-75
2022/03/21 10:31:02;;;;;;;1.35;1.15;;;11.50;99.90;;;;;;5015449;28;20033;-75
2022/03/21 10:33:28;;;;;;;0.98;0.98;;;11.50;99.90;;;;;;5014584;28;20033;-75
2022/03/21 10:35:54;;;;;;;3.65;1.38;;;11.40;99.90;;;;;;5010576;28;20046;-75
2022/03/21 10:38:40;;;;;;;2.40;2.22;;;11.30;99.90;;;;;;5014395;28;20048;-75
2022/03/21 10:41:09;;;;;;;1.08;1.08;;;11.30;99.90;;;;;;5015027;28;20042;-75
2022/03/21 10:43:36;;;;;;;2.00;1.42;;;11.40;99.90;;;;;;5014949;28;20064;-75
2022/03/21 10:46:03;;;;;;;1.20;0.93;;;11.40;99.90;;;;;;5015325;28;20366;-76
2022/03/21 10:48:34;;;;;;;1.17;1.17;;;11.50;99.90;;;;;;5015393;28;20044;-75
2022/03/21 10:51:01;;;;;;;;;;;11.60;99.90;;;;;;5005408;28;20044;-76
2022/03/21 10:53:32;;;;;;;0.82;0.82;;;11.60;99.90;;;;;;4998474;28;19921;-74
2022/03/21 10:55:58;;;;;;;1.88;1.77;;;11.40;99.90;;;;;;5017188;28;20168;-74
2022/03/21 10:58:36;;;;;;;1.80;1.38;;;11.50;99.90;;;;;;5016814;28;20128;-74
2022/03/21 11:01:20;;;;;;;3.92;2.10;;;11.40;99.90;;;;;;5003057;28;20042;-74
2022/03/21 11:03:52;;;;;;;0.40;0.40;;;11.50;99.90;;;;;;4995181;28;20060;-74
2022/03/21 11:06:18;;;;;;;2.08;1.02;;;11.50;99.90;;;;;;4995255;28;20103;-74
2022/03/21 11:08:50;;;;;;;1.95;1.10;;;11.70;99.90;;;;;;4995135;28;20045;-74
2022/03/21 11:11:16;;;;;;;1.25;1.25;;;11.80;99.90;;;;;;4999506;28;20125;-73
2022/03/21 11:13:43;;;;;;;2.47;2.28;;;12.00;99.90;;;;;;4996896;28;20188;-74
2022/03/21 11:16:09;;;;;;;5.10;3.30;;;12.20;99.90;;;;;;5007316;28;20100;-74
2022/03/21 11:18:35;;;;;;;1.33;1.30;;;12.30;99.90;;;;;;5014756;28;20064;-74
2022/03/21 11:21:02;;;;;;;1.48;1.45;;;12.10;99.90;;;;;;5014726;28;20556;-74
2022/03/21 11:23:30;;;;;;;1.60;1.50;;;12.00;99.90;;;;;;5014250;28;20044;-74
2022/03/21 11:26:01;;;;;;;1.73;1.63;;;11.80;99.90;;;;;;5001661;28;20046;-72
2022/03/21 11:28:30;;;;;;;2.97;2.70;;;11.80;99.90;;;;;;4994819;28;20096;-73
2022/03/21 11:31:26;;;;;;;1.02;1.02;;;11.60;99.90;;;;;;5004494;28;20266;-74
2022/03/21 11:33:58;;;;;;;0.75;0.63;;;11.60;99.90;;;;;;5004698;28;20041;-74
2022/03/21 11:36:24;;;;;;;1.17;1.15;;;11.80;99.90;;;;;;5010858;28;20037;-74
2022/03/21 11:39:00;;;;;;;0.75;0.75;;;11.30;99.90;;;;;;5000998;28;20053;-74
2022/03/21 11:41:26;;;;;;;1.73;1.63;;;11.30;99.90;;;;;;5013049;28;20037;-74
2022/03/21 11:44:04;;;;;;;1.85;1.20;;;11.40;99.90;;;;;;5010063;28;20034;-74
2022/03/21 11:46:32;;;;;;;0.63;0.63;;;11.40;99.90;;;;;;5013458;28;20116;-74
2022/03/21 11:49:00;;;;;;;2.95;1.88;;;11.30;99.90;;;;;;5008752;28;20176;-73
2022/03/21 11:51:29;;;;;;;1.75;1.65;;;11.40;99.90;;;;;;5017312;28;20030;-74
2022/03/21 11:53:56;;;;;;;1.52;1.42;;;11.60;99.90;;;;;;5014018;28;20046;-74
2022/03/21 11:56:40;;;;;;;1.85;1.25;;;11.50;99.90;;;;;;5014300;28;20120;-74
2022/03/21 11:59:08;;;;;;;1.30;1.20;;;11.70;99.90;;;;;;4994596;28;20049;-74
2022/03/21 12:01:34;;;;;;;0.52;0.52;;;11.70;99.90;;;;;;5005648;28;20068;-74
2022/03/21 12:04:30;;;;;;;1.33;1.23;;;11.70;99.90;;;;;;5016630;28;20042;-74
2022/03/21 12:07:19;;;;;;;0.90;0.90;;;11.70;99.90;;;;;;4999830;28;20033;-74
2022/03/21 12:09:50;;;;;;;1.58;1.48;;;11.60;99.90;;;;;;5005858;28;20038;-74
2022/03/21 12:12:20;;;;;;;0.47;0.47;;;11.60;99.90;;;;;;5013324;28;20042;-74
2022/03/21 12:14:47;;;;;;;1.73;1.63;;;11.70;99.90;;;;;;5019272;28;20625;-74
2022/03/21 12:17:13;;;;;;;0.57;0.57;;;11.80;99.90;;;;;;5018702;28;20078;-74
2022/03/21 12:20:07;;;;;;;1.27;1.25;;;11.80;99.90;;;;;;5011204;28;20146;-74
2022/03/21 12:22:33;;;;;;;3.60;1.27;;;11.60;99.90;;;;;;5005243;28;20058;-74
2022/03/21 12:25:00;;;;;;;0.47;0.47;;;11.60;99.90;;;;;;5014794;28;20041;-74
2022/03/21 12:27:52;;;;;;;1.50;1.40;;;11.60;99.90;;;;;;5006223;28;20053;-74
2022/03/21 12:30:26;;;;;;;0.68;0.68;;;11.60;99.90;;;;;;4999200;28;20041;-74
2022/03/21 12:33:11;;;;;;;1.45;1.38;;;11.50;99.90;;;;;;5003945;28;20037;-74
2022/03/21 12:35:45;;;;;;;0.60;0.60;;;11.50;99.90;;;;;;5010641;28;20040;-74
2022/03/21 12:38:22;;;;;;;2.03;1.92;;;11.30;99.90;;;;;;4999918;28;20077;-74
2022/03/21 12:40:52;;;;;;;1.25;1.17;;;11.40;99.90;;;;;;5014484;28;20099;-73
2022/03/21 12:43:33;;;;;;;1.42;1.33;;;11.50;99.90;;;;;;5005212;28;20038;-72
2022/03/21 12:46:09;;;;;;;7.55;2.47;;;11.30;99.90;;;;;;5014195;28;20042;-73
2022/03/21 12:48:44;;;;;;;1.48;1.38;;;11.40;99.90;;;;;;5013755;28;20046;-73
2022/03/21 12:51:13;;;;;;;1.55;1.45;;;11.50;99.90;;;;;;5013884;28;20041;-74
2022/03/21 12:53:43;;;;;;;0.55;0.55;;;11.60;99.90;;;;;;5016878;28;20041;-75
2022/03/21 12:56:10;;;;;;;1.23;1.20;;;11.50;99.90;;;;;;5025550;28;20037;-75
2022/03/21 12:58:40;;;;;;;3.20;1.55;;;11.60;99.90;;;;;;5015445;28;20119;-75
2022/03/21 13:01:06;;;;;;;1.13;1.13;;;11.80;99.90;;;;;;5017537;28;20146;-75
2022/03/21 13:03:32;;;;;;;1.40;1.38;;;11.70;99.90;;;;;;5017590;28;20486;-75
2022/03/21 13:11:30;;;;;;;1.42;1.33;;;11.70;99.90;;;;;;5016963;28;20029;-75
2022/03/21 13:13:59;;;;;;;1.50;1.40;;;11.60;99.90;;;;;;5017949;28;20396;-75
2022/03/21 13:16:27;;;;;;;2.78;2.58;;;11.60;99.90;;;;;;5017441;28;20037;-75
2022/03/21 13:18:56;;;;;;;2.20;2.00;;;11.50;99.90;;;;;;5017266;28;20150;-75
2022/03/21 13:21:22;;;;;;;1.50;1.40;;;11.40;99.90;;;;;;5016607;28;20136;-75